Time;durP1;ratioP1;P1;durP2;ratioP2;P2;SDS_P1;SDS_P2;PMS_P1;PMS_P2;Temp;Humidity;BMP_temperature;BMP_pressure;BME280_temperature;BME280_humidity;BME280_pressure;Samples;Min_cycle;Max_cycle;Signal;HPM_P1;HPM_P2
2023/02/01 00:02:24;;;;;;;20.30;8.88;;;;;;;1.63;76.89;101232.66;5029619;28;20021;-70
2023/02/01 00:04:49;;;;;;;19.02;8.70;;;;;;;1.60;76.87;101225.91;5033187;28;20095;-70
2023/02/01 00:07:15;;;;;;;19.10;8.10;;;;;;;1.62;76.72;101226.69;5033410;28;20376;-70
2023/02/01 00:09:40;;;;;;;18.35;8.57;;;;;;;1.61;76.80;101219.88;5031142;28;20141;-69
2023/02/01 00:12:06;;;;;;;19.60;9.63;;;;;;;1.62;77.11;101221.53;5030179;28;20041;-70
2023/02/01 00:14:38;;;;;;;19.42;9.25;;;;;;;1.64;77.12;101224.88;5031780;28;20105;-70
2023/02/01 00:17:04;;;;;;;17.60;8.52;;;;;;;1.64;77.60;101218.91;5027719;28;20045;-70
2023/02/01 00:19:30;;;;;;;17.52;9.90;;;;;;;1.66;77.44;101214.53;5030857;28;20413;-70
2023/02/01 00:21:55;;;;;;;20.48;9.52;;;;;;;1.69;77.83;101221.25;5029320;28;20032;-70
2023/02/01 00:24:20;;;;;;;19.58;8.90;;;;;;;1.74;77.51;101219.31;5033672;28;20033;-70
2023/02/01 00:26:46;;;;;;;17.77;8.27;;;;;;;1.76;77.43;101228.63;5033045;28;20652;-69
2023/02/01 00:29:19;;;;;;;20.65;9.85;;;;;;;1.78;77.06;101223.41;5031886;28;20084;-70
2023/02/01 00:31:45;;;;;;;19.25;8.55;;;;;;;1.78;77.17;101226.00;5027610;28;20112;-70
2023/02/01 00:34:16;;;;;;;21.55;8.82;;;;;;;1.81;77.49;101215.56;5030555;28;20059;-70
2023/02/01 00:36:43;;;;;;;21.65;8.60;;;;;;;1.82;77.77;101212.94;5028866;28;20607;-70
2023/02/01 00:39:09;;;;;;;17.38;8.88;;;;;;;1.89;77.53;101222.00;5031153;28;20040;-70
2023/02/01 00:41:34;;;;;;;17.48;8.65;;;;;;;1.89;77.31;101223.75;5028715;28;20065;-70
2023/02/01 00:44:01;;;;;;;17.85;8.60;;;;;;;1.86;77.73;101216.19;5031334;28;20430;-71
2023/02/01 00:46:26;;;;;;;17.27;8.80;;;;;;;1.84;77.54;101215.44;5029070;28;20502;-70
2023/02/01 00:48:51;;;;;;;18.83;8.65;;;;;;;1.84;77.68;101215.44;5030996;28;20124;-70
2023/02/01 00:51:20;;;;;;;17.17;8.55;;;;;;;1.80;77.59;101221.63;5030701;28;20084;-70
2023/02/01 00:53:46;;;;;;;19.60;8.55;;;;;;;1.80;77.83;101231.88;5031692;28;20033;-70
2023/02/01 00:56:12;;;;;;;17.80;8.70;;;;;;;1.76;78.12;101220.91;5031330;28;20400;-70
2023/02/01 00:58:37;;;;;;;23.10;8.50;;;;;;;1.73;77.99;101228.75;5030313;28;20045;-71
2023/02/01 01:01:10;;;;;;;21.88;9.20;;;;;;;1.68;78.39;101230.72;5031624;28;20029;-70
2023/02/01 01:03:40;;;;;;;20.13;9.93;;;;;;;1.70;78.33;101222.94;5024983;28;20146;-70
2023/02/01 01:06:12;;;;;;;20.10;8.80;;;;;;;1.72;78.08;101223.69;5029393;28;20021;-71
2023/02/01 01:08:38;;;;;;;17.15;8.55;;;;;;;1.74;77.87;101224.47;5028044;28;20025;-70
2023/02/01 01:11:13;;;;;;;19.52;8.65;;;;;;;1.72;78.02;101218.56;5029880;28;20028;-70
2023/02/01 01:13:39;;;;;;;19.30;8.50;;;;;;;1.66;78.44;101228.19;5028308;28;20498;-70
2023/02/01 01:16:06;;;;;;;17.92;8.32;;;;;;;1.60;78.87;101220.78;5030892;28;20061;-70
2023/02/01 01:18:32;;;;;;;17.98;8.45;;;;;;;1.59;78.73;101213.97;5034044;28;20018;-70
2023/02/01 01:20:59;;;;;;;17.35;8.05;;;;;;;1.60;78.76;101213.06;5032224;28;20045;-69
2023/02/01 01:23:25;;;;;;;18.80;8.80;;;;;;;1.59;78.94;101210.56;5028064;28;20713;-70
2023/02/01 01:25:50;;;;;;;22.00;9.82;;;;;;;1.64;79.03;101199.19;5036086;28;20085;-71
2023/02/01 01:28:16;;;;;;;19.35;8.63;;;;;;;1.62;79.44;101200.97;5037576;28;20441;-70
2023/02/01 01:30:41;;;;;;;17.67;8.45;;;;;;;1.63;79.51;101205.22;5039398;28;20146;-70
2023/02/01 01:33:07;;;;;;;17.33;9.02;;;;;;;1.65;79.49;101194.88;5034490;28;20029;-70
2023/02/01 01:35:32;;;;;;;20.75;9.73;;;;;;;1.66;79.23;101196.53;5033722;28;20128;-70
2023/02/01 01:37:59;;;;;;;17.42;8.32;;;;;;;1.66;78.95;101191.41;5031480;28;20055;-70
2023/02/01 01:40:25;;;;;;;16.48;8.18;;;;;;;1.62;79.44;101184.75;5034069;28;20485;-71
2023/02/01 01:42:53;;;;;;;17.95;9.07;;;;;;;1.59;79.72;101195.97;5033966;28;20044;-70
2023/02/01 01:45:33;;;;;;;18.67;8.77;;;;;;;1.58;79.90;101198.63;5013735;28;19925;-70
2023/02/01 01:48:07;;;;;;;20.60;9.52;;;;;;;1.57;80.87;101200.34;5030011;28;20033;-70
2023/02/01 01:50:41;;;;;;;20.05;9.43;;;;;;;1.49;80.94;101191.31;5031881;28;20051;-70
2023/02/01 01:53:11;;;;;;;22.55;10.95;;;;;;;1.36;82.03;101191.06;5030861;28;20056;-71
2023/02/01 01:55:39;;;;;;;25.98;12.57;;;;;;;1.23;83.54;101189.94;5034201;28;20034;-71
2023/02/01 01:58:10;;;;;;;29.10;12.98;;;;;;;1.15;84.15;101186.88;5032598;28;20544;-70
2023/02/01 02:00:37;;;;;;;22.73;12.23;;;;;;;1.20;84.33;101179.81;5033954;28;20434;-70
2023/02/01 02:03:11;;;;;;;25.13;11.35;;;;;;;1.36;83.29;101191.06;5032462;28;20705;-71
2023/02/01 02:05:37;;;;;;;20.10;8.55;;;;;;;1.58;81.98;101185.78;5029051;28;20559;-70
2023/02/01 02:08:03;;;;;;;16.65;7.93;;;;;;;1.67;80.27;101175.94;5033665;28;20119;-70
2023/02/01 02:13:16;;;;;;;21.30;10.05;;;;;;;1.62;81.10;101180.44;5030545;28;20415;-70
2023/02/01 02:16:21;;;;;;;22.27;12.23;;;;;;;1.36;83.21;101185.94;5030157;28;20038;-69
2023/02/01 02:19:08;;;;;;;24.67;11.95;;;;;;;1.28;83.11;101178.56;5032151;28;20077;-71
2023/02/01 02:22:02;;;;;;;26.85;12.15;;;;;;;1.24;83.90;101173.63;5030043;28;20351;-71
2023/02/01 02:25:05;;;;;;;24.52;10.35;;;;;;;1.18;84.85;101169.59;5031830;28;20488;-70
2023/02/01 02:28:02;;;;;;;19.35;9.68;;;;;;;1.19;84.96;101170.44;5029884;28;20044;-70
2023/02/01 02:30:39;;;;;;;15.07;7.57;;;;;;;1.37;83.26;101173.94;5026581;28;20029;-70
2023/02/01 02:33:25;;;;;;;19.55;9.15;;;;;;;1.55;82.46;101168.78;5033523;28;20032;-69
2023/02/01 02:36:04;;;;;;;;;;;;;;;1.62;82.25;101165.03;5032578;28;20519;-69
2023/02/01 02:38:40;;;;;;;18.27;8.02;;;;;;;1.66;81.55;101161.41;5032433;28;20261;-70
2023/02/01 02:47:23;;;;;;;17.83;8.20;;;;;;;1.65;81.17;101153.78;5035758;28;20029;-70
2023/02/01 02:55:38;;;;;;;16.25;8.32;;;;;;;1.73;81.75;101161.97;5031699;28;20049;-70
2023/02/01 03:06:24;;;;;;;15.43;7.43;;;;;;;1.80;81.37;101163.34;5033959;28;20111;-69
2023/02/01 03:08:53;;;;;;;16.05;8.35;;;;;;;1.84;81.14;101171.75;5033621;28;20458;-70
2023/02/01 03:11:20;;;;;;;14.80;8.07;;;;;;;1.83;80.57;101170.91;5034770;28;20053;-70
2023/02/01 03:13:49;;;;;;;16.65;8.05;;;;;;;1.83;80.61;101162.38;5030609;28;20087;-71
2023/02/01 03:16:23;;;;;;;23.63;9.00;;;;;;;1.87;81.08;101166.47;5034863;28;20047;-70
2023/02/01 03:19:00;;;;;;;17.17;8.10;;;;;;;1.90;80.99;101161.16;5027726;28;20037;-69
2023/02/01 03:21:40;;;;;;;18.33;8.65;;;;;;;1.92;80.73;101157.59;5031427;28;20441;-69
2023/02/01 03:24:17;;;;;;;19.10;8.85;;;;;;;1.94;80.90;101157.53;5032608;28;20068;-70
2023/02/01 03:26:49;;;;;;;18.40;8.70;;;;;;;1.97;81.02;101157.41;5033475;28;20615;-69
2023/02/01 03:29:19;;;;;;;16.02;8.02;;;;;;;2.02;80.88;101150.31;5033575;28;20083;-70
2023/02/01 03:31:45;;;;;;;18.02;8.65;;;;;;;2.03;80.46;101153.69;5030404;28;20033;-71
2023/02/01 03:34:13;;;;;;;15.52;8.43;;;;;;;2.02;80.68;101155.44;5034138;28;20036;-70
2023/02/01 03:36:45;;;;;;;16.88;9.38;;;;;;;2.02;81.22;101167.47;5028677;28;20030;-70
2023/02/01 03:39:23;;;;;;;18.23;9.68;;;;;;;2.02;80.82;101168.28;5036069;28;20033;-70
2023/02/01 03:42:12;;;;;;;19.92;8.95;;;;;;;2.03;80.96;101174.25;5034106;28;20037;-70
2023/02/01 03:44:49;;;;;;;18.65;8.90;;;;;;;2.03;80.43;101162.25;5031538;28;20037;-69
2023/02/01 03:47:20;;;;;;;18.40;9.05;;;;;;;2.02;80.76;101168.28;5035204;28;20064;-70
2023/02/01 03:49:48;;;;;;;16.17;8.65;;;;;;;2.02;80.69;101170.88;5032356;28;20021;-70
2023/02/01 03:52:28;;;;;;;19.35;9.25;;;;;;;2.06;80.80;101171.56;5032666;28;20374;-70
2023/02/01 03:54:54;;;;;;;17.08;9.20;;;;;;;2.08;80.62;101173.16;5032992;28;20026;-70
2023/02/01 03:57:26;;;;;;;20.42;8.93;;;;;;;2.09;80.77;101168.84;5030898;28;20095;-70
2023/02/01 03:59:52;;;;;;;22.95;9.35;;;;;;;2.11;80.84;101167.03;5032817;28;20103;-69
2023/02/01 04:02:17;;;;;;;20.10;10.20;;;;;;;2.11;81.10;101164.47;5031098;28;20029;-70
2023/02/01 04:04:43;;;;;;;20.33;10.07;;;;;;;2.07;81.46;101174.06;5025634;28;20504;-70
2023/02/01 04:07:08;;;;;;;22.33;10.60;;;;;;;2.08;81.45;101168.00;5030176;28;20476;-69
2023/02/01 04:09:34;;;;;;;20.80;10.80;;;;;;;2.13;81.41;101178.06;5029471;28;20096;-69
2023/02/01 04:11:59;;;;;;;22.05;10.20;;;;;;;2.13;82.21;101176.34;5039255;28;20325;-70
2023/02/01 04:14:25;;;;;;;20.60;10.57;;;;;;;2.14;82.09;101185.72;5030573;28;20125;-70
2023/02/01 04:16:50;;;;;;;20.20;9.35;;;;;;;2.13;81.83;101176.34;5044368;28;20037;-70
2023/02/01 04:19:16;;;;;;;20.55;9.90;;;;;;;2.06;82.03;101181.84;5039012;28;20036;-71
2023/02/01 04:21:41;;;;;;;24.13;10.60;;;;;;;2.01;81.71;101176.91;5038750;28;20053;-71
2023/02/01 04:24:08;;;;;;;21.42;9.65;;;;;;;2.00;81.82;101175.25;5039850;28;20044;-71
2023/02/01 04:26:33;;;;;;;17.88;9.20;;;;;;;2.02;81.64;101172.59;5036028;28;20029;-72
2023/02/01 04:28:59;;;;;;;17.60;9.18;;;;;;;2.03;81.37;101177.66;5034448;28;20376;-71
2023/02/01 04:31:27;;;;;;;22.33;8.93;;;;;;;2.02;81.37;101176.00;5031686;28;20037;-72
2023/02/01 04:33:54;;;;;;;18.33;8.57;;;;;;;2.06;81.90;101177.53;5037493;28;20151;-72
2023/02/01 04:36:23;;;;;;;20.75;10.55;;;;;;;2.06;81.95;101180.09;5027988;28;20127;-72
2023/02/01 04:38:50;;;;;;;21.33;10.25;;;;;;;2.08;82.42;101172.31;5034840;28;20499;-72
2023/02/01 04:41:18;;;;;;;23.63;10.80;;;;;;;2.11;82.83;101173.00;5034214;28;20029;-72
2023/02/01 04:43:47;;;;;;;23.23;10.40;;;;;;;2.15;82.99;101178.81;5029343;28;20480;-72
2023/02/01 04:46:12;;;;;;;22.98;11.30;;;;;;;2.16;82.73;101176.19;5036454;28;20521;-72
2023/02/01 04:48:38;;;;;;;23.00;11.57;;;;;;;2.19;82.92;101170.06;5033837;28;20035;-72
2023/02/01 04:51:03;;;;;;;19.92;10.70;;;;;;;2.20;82.50;101177.72;5031408;28;20568;-72
2023/02/01 04:53:29;;;;;;;21.55;9.45;;;;;;;2.18;81.74;101170.97;5036425;28;20548;-72
2023/02/01 04:55:55;;;;;;;20.17;9.80;;;;;;;2.17;81.24;101164.16;5036622;28;20044;-72
2023/02/01 04:58:20;;;;;;;20.52;9.30;;;;;;;2.16;81.76;101171.03;5030577;28;20030;-72
2023/02/01 05:00:46;;;;;;;23.63;11.10;;;;;;;2.16;81.69;101160.75;5034990;28;20057;-72
2023/02/01 05:03:11;;;;;;;23.25;10.63;;;;;;;2.20;82.05;101166.59;5034269;28;20064;-72
2023/02/01 05:05:37;;;;;;;21.55;9.90;;;;;;;2.20;81.87;101164.84;5030478;28;20033;-72
2023/02/01 05:08:02;;;;;;;19.90;9.60;;;;;;;2.22;81.58;101164.78;5035041;28;20033;-72
2023/02/01 05:10:28;;;;;;;20.13;9.88;;;;;;;2.24;81.85;101162.97;5032911;28;20025;-72
2023/02/01 05:15:37;;;;;;;20.60;9.55;;;;;;;2.20;81.37;101164.00;5029519;28;20418;-72
2023/02/01 05:18:02;;;;;;;22.55;10.18;;;;;;;2.16;81.30;101160.75;5031162;28;20025;-72
2023/02/01 05:20:28;;;;;;;18.88;9.40;;;;;;;2.15;80.74;101153.13;5029515;28;20053;-72
2023/02/01 05:22:53;;;;;;;17.38;9.88;;;;;;;2.14;80.62;101154.84;5032773;28;20476;-72
2023/02/01 05:25:19;;;;;;;16.73;8.02;;;;;;;2.15;80.61;101165.97;5028917;28;20032;-72
2023/02/01 05:27:45;;;;;;;17.77;9.15;;;;;;;2.18;80.38;101158.13;5028017;28;20022;-73
2023/02/01 05:30:10;;;;;;;18.58;9.70;;;;;;;2.18;80.57;101158.13;5030859;28;20044;-72
2023/02/01 05:32:36;;;;;;;17.95;8.43;;;;;;;2.18;79.84;101156.38;5030450;28;20432;-70
2023/02/01 05:35:01;;;;;;;19.05;8.82;;;;;;;2.18;80.02;101156.38;5031072;28;20021;-70
2023/02/01 05:37:27;;;;;;;19.88;9.20;;;;;;;2.17;80.61;101159.84;5031118;28;20450;-70
2023/02/01 05:39:53;;;;;;;20.48;8.38;;;;;;;2.16;80.40;101162.50;5031717;28;20056;-71
2023/02/01 05:42:18;;;;;;;17.55;8.68;;;;;;;2.18;80.43;101164.09;5031451;28;20088;-71
2023/02/01 05:44:44;;;;;;;21.00;10.35;;;;;;;2.17;80.50;101164.16;5029463;28;20029;-70
2023/02/01 05:47:09;;;;;;;18.50;9.43;;;;;;;2.14;80.19;101165.13;5032293;28;20052;-70
2023/02/01 05:49:35;;;;;;;18.45;8.93;;;;;;;2.13;80.15;101160.91;5030065;28;20170;-70
2023/02/01 05:52:01;;;;;;;17.17;8.57;;;;;;;2.13;80.31;101168.63;5030115;28;20515;-70
2023/02/01 05:54:27;;;;;;;20.05;9.70;;;;;;;2.16;80.15;101171.03;5033172;28;20403;-70
2023/02/01 05:56:52;;;;;;;16.88;9.55;;;;;;;2.11;80.24;101162.72;5030081;28;20033;-70
2023/02/01 05:59:18;;;;;;;18.92;8.55;;;;;;;2.10;80.56;101166.19;5027579;28;21099;-70
2023/02/01 06:01:43;;;;;;;17.20;9.25;;;;;;;2.09;80.83;101167.09;5029425;28;20025;-70
2023/02/01 06:04:09;;;;;;;17.77;9.93;;;;;;;2.11;80.93;101173.00;5029145;28;20037;-70
2023/02/01 06:06:34;;;;;;;17.63;9.13;;;;;;;2.10;80.56;101179.03;5033428;28;20540;-70
2023/02/01 06:09:00;;;;;;;18.77;8.65;;;;;;;2.11;81.19;101178.13;5033093;28;20044;-70
2023/02/01 06:11:27;;;;;;;18.25;9.60;;;;;;;2.11;80.89;101183.28;5031956;28;20029;-71
2023/02/01 06:13:53;;;;;;;17.15;9.55;;;;;;;2.14;80.85;101188.28;5030580;28;20037;-70
2023/02/01 06:16:19;;;;;;;20.90;11.15;;;;;;;2.13;81.24;101184.03;5038953;28;20033;-70
2023/02/01 06:18:44;;;;;;;18.95;10.52;;;;;;;2.14;80.61;101184.88;5036627;28;20033;-69
2023/02/01 06:21:09;;;;;;;17.70;8.63;;;;;;;2.10;80.51;101181.63;5037626;28;20034;-70
2023/02/01 06:23:35;;;;;;;18.27;9.55;;;;;;;2.09;81.02;101169.66;5035341;28;20124;-69
2023/02/01 06:26:05;;;;;;;22.83;10.18;;;;;;;2.09;80.79;101169.66;5034285;28;20033;-70
2023/02/01 06:28:32;;;;;;;19.27;9.45;;;;;;;2.09;80.77;101185.09;5033514;28;20392;-71
2023/02/01 06:30:57;;;;;;;16.50;9.23;;;;;;;2.11;80.73;101185.03;5040832;28;20071;-69
2023/02/01 06:33:24;;;;;;;20.40;10.18;;;;;;;2.13;80.73;101176.34;5033616;28;20033;-69
2023/02/01 06:35:57;;;;;;;20.40;10.57;;;;;;;2.13;80.98;101173.75;5032009;28;20060;-69
2023/02/01 06:38:22;;;;;;;20.40;10.05;;;;;;;2.13;80.96;101185.78;5036456;28;20135;-69
2023/02/01 06:40:52;;;;;;;18.67;9.85;;;;;;;2.14;81.90;101180.56;5033538;28;20025;-71
2023/02/01 06:43:18;;;;;;;21.98;10.10;;;;;;;2.13;81.27;101176.34;5036361;28;20044;-69
2023/02/01 06:45:43;;;;;;;20.42;10.25;;;;;;;2.12;81.60;101168.69;5033805;28;20030;-70
2023/02/01 06:48:08;;;;;;;16.88;9.18;;;;;;;2.09;81.59;101166.25;5031760;28;20040;-69
2023/02/01 06:50:35;;;;;;;20.10;9.95;;;;;;;2.04;81.11;101171.63;5033318;28;20106;-69
2023/02/01 06:53:00;;;;;;;18.52;9.82;;;;;;;1.99;81.44;101173.56;5032535;28;20048;-70
2023/02/01 06:55:25;;;;;;;19.60;9.98;;;;;;;1.96;81.61;101174.56;5027272;28;20378;-69
2023/02/01 06:57:55;;;;;;;18.45;10.60;;;;;;;1.98;81.65;101183.03;5024392;28;20041;-70
2023/02/01 07:00:22;;;;;;;26.02;11.70;;;;;;;1.96;82.40;101186.56;5030066;28;21737;-69
2023/02/01 07:02:47;;;;;;;22.30;11.15;;;;;;;1.96;82.21;101181.44;5038433;28;20399;-70
2023/02/01 07:05:13;;;;;;;24.00;12.40;;;;;;;1.94;82.33;101178.09;5039653;28;20034;-70
2023/02/01 07:07:38;;;;;;;26.92;11.18;;;;;;;1.95;82.23;101180.59;5031333;28;20033;-70
2023/02/01 07:10:04;;;;;;;23.02;11.63;;;;;;;1.95;82.16;101187.47;5025410;28;20095;-70
2023/02/01 07:12:30;;;;;;;22.23;11.38;;;;;;;1.96;81.50;101191.72;5030485;28;20025;-70
2023/02/01 07:14:56;;;;;;;28.33;12.07;;;;;;;1.92;nan;101197.91;5025641;28;20040;-70
2023/02/01 07:17:22;;;;;;;26.13;12.75;;;;;;;1.93;81.11;101197.00;5024937;28;20116;-70
2023/02/01 07:19:47;;;;;;;18.70;9.95;;;;;;;2.02;80.49;101188.84;5035907;28;20383;-69
2023/02/01 07:22:15;;;;;;;21.52;9.65;;;;;;;2.06;80.56;101195.53;5032381;28;20033;-69
2023/02/01 07:24:41;;;;;;;22.88;10.30;;;;;;;2.12;80.25;101196.97;5027760;28;20034;-70
2023/02/01 07:27:06;;;;;;;23.98;10.20;;;;;;;2.17;80.18;101201.00;5029004;28;20031;-71
2023/02/01 07:29:31;;;;;;;18.63;9.60;;;;;;;2.18;80.27;101197.50;5032702;28;20378;-69
2023/02/01 07:31:57;;;;;;;24.48;8.48;;;;;;;2.19;80.19;101193.19;5033434;28;21603;-69
2023/02/01 07:34:23;;;;;;;18.42;9.55;;;;;;;2.15;80.23;101194.25;5035799;28;20781;-69
2023/02/01 07:36:48;;;;;;;17.55;9.82;;;;;;;2.16;80.25;101196.75;5029146;28;20084;-69
2023/02/01 07:39:14;;;;;;;17.95;9.35;;;;;;;2.17;80.68;101197.59;5022197;28;20037;-70
2023/02/01 07:41:39;;;;;;;24.15;11.38;;;;;;;2.17;80.49;101185.56;5027406;28;20028;-69
2023/02/01 07:44:05;;;;;;;19.27;9.85;;;;;;;2.17;80.30;101182.16;5026478;28;20069;-70
2023/02/01 07:46:30;;;;;;;24.23;11.68;;;;;;;2.19;80.05;101191.47;5031171;28;20025;-70
2023/02/01 07:48:56;;;;;;;21.85;10.13;;;;;;;2.20;80.38;101192.28;5028847;28;20443;-71
2023/02/01 07:51:21;;;;;;;22.00;9.95;;;;;;;2.19;80.92;101186.31;5030047;28;20735;-69
2023/02/01 07:53:47;;;;;;;19.35;9.32;;;;;;;2.23;80.47;101179.28;5035002;28;20032;-70
2023/02/01 07:56:15;;;;;;;20.88;10.85;;;;;;;2.27;80.88;101179.06;5028427;28;20029;-70
2023/02/01 07:58:41;;;;;;;21.63;11.23;;;;;;;2.35;80.88;101178.72;5031561;28;20534;-69
2023/02/01 08:01:20;;;;;;;24.25;11.75;;;;;;;2.38;80.97;101175.97;5037886;28;20040;-70
2023/02/01 08:04:09;;;;;;;21.33;11.93;;;;;;;2.39;80.64;101174.22;5034244;28;20388;-71
2023/02/01 08:06:35;;;;;;;24.98;11.68;;;;;;;2.45;80.32;101177.31;5026156;28;20055;-72
2023/02/01 08:09:00;;;;;;;21.25;11.43;;;;;;;2.57;80.03;101175.91;5034523;28;20029;-72
2023/02/01 08:11:26;;;;;;;20.88;11.13;;;;;;;2.65;79.92;101171.19;5031472;28;20032;-72
2023/02/01 08:13:52;;;;;;;21.65;10.68;;;;;;;2.70;79.74;101170.97;5035201;28;20037;-72
2023/02/01 08:16:19;;;;;;;25.85;10.77;;;;;;;2.75;79.27;101169.00;5034460;28;20040;-72
2023/02/01 08:18:44;;;;;;;18.75;9.65;;;;;;;2.89;78.68;101171.69;5032047;28;20621;-72
2023/02/01 08:21:11;;;;;;;21.75;10.13;;;;;;;2.95;79.11;101161.91;5032629;28;20412;-72
2023/02/01 08:23:38;;;;;;;18.38;10.05;;;;;;;3.09;78.29;101168.09;5029968;28;20034;-74
2023/02/01 08:26:08;;;;;;;21.35;10.60;;;;;;;3.23;78.36;101165.66;5029653;28;20025;-74
2023/02/01 08:28:34;;;;;;;25.52;13.35;;;;;;;3.19;78.74;101166.72;5032084;28;20025;-75
2023/02/01 08:31:04;;;;;;;24.23;13.05;;;;;;;3.18;78.52;101165.06;5038344;28;20063;-73
2023/02/01 08:33:29;;;;;;;23.70;12.00;;;;;;;3.24;78.57;101169.88;5025483;28;20097;-73
2023/02/01 08:35:55;;;;;;;22.58;11.57;;;;;;;3.27;77.96;101167.16;5030045;28;20448;-74
2023/02/01 08:38:20;;;;;;;21.48;11.45;;;;;;;3.28;77.87;101163.66;5030947;28;20041;-74
2023/02/01 08:40:46;;;;;;;22.30;11.75;;;;;;;3.34;77.94;101165.88;5031917;28;20060;-74
2023/02/01 08:43:11;;;;;;;21.92;12.13;;;;;;;3.42;77.63;101166.31;5032322;28;20037;-73
2023/02/01 08:45:37;;;;;;;19.00;10.25;;;;;;;3.44;77.59;101167.06;5024143;28;20098;-73
2023/02/01 08:48:02;;;;;;;21.08;10.95;;;;;;;3.47;77.75;101166.91;5034169;28;20554;-74
2023/02/01 08:50:27;;;;;;;21.20;10.73;;;;;;;3.56;77.80;101163.00;5030473;28;20105;-73
2023/02/01 08:52:54;;;;;;;23.50;10.93;;;;;;;3.60;77.06;101169.66;5028821;28;20087;-73
2023/02/01 08:55:19;;;;;;;22.83;11.43;;;;;;;3.61;77.01;101156.69;5031478;28;20044;-73
2023/02/01 08:57:45;;;;;;;24.33;12.13;;;;;;;3.68;77.23;101167.50;5040658;28;20029;-73
2023/02/01 09:00:15;;;;;;;23.67;12.65;;;;;;;3.79;76.78;101169.47;5028168;28;20484;-74
2023/02/01 09:02:41;;;;;;;29.90;15.40;;;;;;;3.81;76.93;101167.63;5034787;28;20120;-73
2023/02/01 09:05:07;;;;;;;33.90;17.20;;;;;;;3.87;76.43;101160.41;5032257;28;20132;-73
2023/02/01 09:07:33;;;;;;;35.20;16.95;;;;;;;3.88;76.41;101158.66;5030876;28;20036;-72
2023/02/01 09:10:00;;;;;;;30.73;17.75;;;;;;;3.87;76.82;101162.16;5034836;28;20191;-73
2023/02/01 09:12:28;;;;;;;32.33;15.77;;;;;;;3.93;76.56;101161.81;5031143;28;20404;-73
2023/02/01 09:14:55;;;;;;;25.80;12.52;;;;;;;3.99;77.19;101170.03;5027922;28;20099;-73
2023/02/01 09:17:21;;;;;;;21.17;11.63;;;;;;;4.14;76.87;101176.09;5024726;28;20056;-73
2023/02/01 09:19:46;;;;;;;26.02;12.02;;;;;;;4.32;75.95;101180.19;5021483;28;20149;-73
2023/02/01 09:22:11;;;;;;;26.52;13.32;;;;;;;4.42;75.77;101174.53;5027113;28;20345;-73
2023/02/01 09:24:37;;;;;;;25.30;12.23;;;;;;;4.57;74.93;101173.66;5026385;28;20707;-74
2023/02/01 09:27:03;;;;;;;22.05;11.77;;;;;;;4.67;73.90;101177.34;5028217;28;20105;-74
2023/02/01 09:29:28;;;;;;;20.65;11.50;;;;;;;4.73;74.01;101171.81;5033341;28;20482;-73
2023/02/01 09:31:54;;;;;;;26.27;12.50;;;;;;;4.78;74.13;101166.38;5037066;28;20569;-73
2023/02/01 09:34:19;;;;;;;20.58;11.18;;;;;;;4.81;73.84;101184.28;5035238;28;20182;-73
2023/02/01 09:36:45;;;;;;;22.40;12.30;;;;;;;4.91;73.67;101175.91;5023455;28;20031;-72
2023/02/01 09:39:10;;;;;;;19.92;11.88;;;;;;;4.91;73.43;101168.16;5029589;28;20118;-73
2023/02/01 09:41:56;;;;;;;26.08;11.63;;;;;;;4.94;72.32;101174.88;5029797;28;20033;-74
2023/02/01 09:44:38;;;;;;;19.10;10.95;;;;;;;4.99;71.79;101175.44;5032151;28;20042;-73
2023/02/01 09:47:10;;;;;;;28.15;11.88;;;;;;;5.04;73.17;101172.59;5034784;28;20059;-73
2023/02/01 09:49:46;;;;;;;26.42;12.55;;;;;;;5.07;72.97;101172.41;5031666;28;20065;-73
2023/02/01 09:52:14;;;;;;;26.15;11.73;;;;;;;5.08;72.61;101168.91;5031886;28;20029;-73
2023/02/01 09:54:53;;;;;;;23.95;12.10;;;;;;;5.21;72.94;101162.06;5031037;28;20029;-73
2023/02/01 09:57:25;;;;;;;25.23;12.25;;;;;;;5.33;72.86;101156.97;5029272;28;20033;-73
2023/02/01 10:00:02;;;;;;;24.65;12.38;;;;;;;5.46;72.65;101159.63;5027094;28;20034;-72
2023/02/01 10:02:30;;;;;;;26.90;13.52;;;;;;;5.58;71.56;101148.53;5026255;28;20029;-72
2023/02/01 10:04:58;;;;;;;21.58;11.50;;;;;;;5.59;72.02;101150.22;5028522;28;20037;-74
2023/02/01 10:08:11;;;;;;;23.35;10.88;;;;;;;5.71;70.93;101165.84;5029541;28;20036;-73
2023/02/01 10:11:05;;;;;;;28.80;10.73;;;;;;;5.68;70.40;101144.44;5064716;28;20038;-73
2023/02/01 10:13:42;;;;;;;28.30;11.32;;;;;;;5.66;71.78;101151.50;5047995;28;20029;-73
2023/02/01 10:16:51;;;;;;;23.58;10.85;;;;;;;5.92;70.51;101155.03;5063202;28;20037;-73
2023/02/01 10:19:34;;;;;;;24.15;12.10;;;;;;;5.89;71.32;101146.63;5006632;28;20037;-72
2023/02/01 10:22:05;;;;;;;20.48;10.90;;;;;;;6.04;71.15;101153.41;5006978;28;20042;-73
2023/02/01 10:24:46;;;;;;;19.70;10.98;;;;;;;6.14;70.14;101162.25;5010207;28;20550;-73
2023/02/01 10:27:21;;;;;;;24.70;11.20;;;;;;;6.27;69.77;101152.72;5007284;28;20038;-73
2023/02/01 10:29:57;;;;;;;20.42;10.98;;;;;;;6.43;69.13;101147.38;5009624;28;20060;-73
2023/02/01 10:32:37;;;;;;;20.40;12.00;;;;;;;6.71;67.97;101146.38;5004925;28;20118;-72
2023/02/01 10:35:12;;;;;;;17.35;10.38;;;;;;;6.78;68.11;101146.78;5002543;28;20034;-72
2023/02/01 10:37:41;;;;;;;23.02;13.00;;;;;;;6.73;68.80;101144.50;4997692;28;20045;-73
2023/02/01 10:40:16;;;;;;;20.92;12.45;;;;;;;6.82;68.29;101150.81;5006109;28;20147;-74
2023/02/01 10:42:43;;;;;;;23.60;12.02;;;;;;;6.83;68.01;101145.53;4981429;28;20690;-73
2023/02/01 10:45:20;;;;;;;24.55;13.35;;;;;;;6.79;68.54;101144.09;4988590;28;20045;-72
2023/02/01 10:47:47;;;;;;;22.58;13.02;;;;;;;6.84;67.94;101141.19;4983665;28;20033;-73
2023/02/01 10:50:36;;;;;;;23.30;12.93;;;;;;;6.82;68.06;101130.94;4989761;28;20504;-73
2023/02/01 10:53:07;;;;;;;46.13;22.88;;;;;;;6.93;68.37;101145.75;4984488;28;20038;-73
2023/02/01 10:55:35;;;;;;;51.08;26.45;;;;;;;7.17;67.72;101145.81;5004265;28;20163;-73
2023/02/01 10:58:03;;;;;;;28.58;15.70;;;;;;;7.08;67.29;101138.69;5021237;28;20128;-72
2023/02/01 11:00:45;;;;;;;23.73;13.73;;;;;;;6.99;67.16;101132.38;5029702;28;20471;-74
2023/02/01 11:03:34;;;;;;;25.85;14.82;;;;;;;6.89;67.99;101133.94;5032574;28;20377;-73
2023/02/01 11:06:03;;;;;;;30.33;18.42;;;;;;;6.73;69.50;101123.78;5027890;28;20065;-73
2023/02/01 11:08:29;;;;;;;31.25;18.95;;;;;;;6.74;69.78;101116.84;5034163;28;20033;-73
2023/02/01 11:11:01;;;;;;;37.22;21.00;;;;;;;6.74;69.64;101112.50;5036550;28;20495;-73
2023/02/01 11:13:35;;;;;;;34.65;20.35;;;;;;;6.85;69.43;101112.59;5029865;28;20030;-74
2023/02/01 11:16:03;;;;;;;33.88;18.92;;;;;;;6.86;69.95;101129.78;5035342;28;20091;-76
2023/02/01 11:18:32;;;;;;;31.05;20.52;;;;;;;6.96;70.19;101109.28;5030763;28;20037;-75
2023/02/01 11:20:59;;;;;;;30.35;17.40;;;;;;;7.01;70.14;101114.16;5028675;28;20034;-76
2023/02/01 11:23:27;;;;;;;29.85;16.77;;;;;;;7.13;70.11;101123.63;5028504;28;20037;-76
2023/02/01 11:26:07;;;;;;;30.50;18.35;;;;;;;7.12;70.74;101094.31;5032546;28;20037;-75
2023/02/01 11:28:37;;;;;;;26.48;15.40;;;;;;;7.15;70.54;101101.03;5025987;28;20029;-76
2023/02/01 11:31:08;;;;;;;30.02;16.02;;;;;;;7.29;70.72;101119.06;5027540;28;20037;-76
2023/02/01 11:33:36;;;;;;;43.35;21.85;;;;;;;7.41;70.53;101100.03;5025414;28;20053;-76
2023/02/01 11:36:14;;;;;;;32.85;16.52;;;;;;;7.45;70.77;101098.06;5021551;28;20018;-76
2023/02/01 11:38:50;;;;;;;39.47;17.38;;;;;;;7.53;71.17;101104.38;5025669;28;20041;-76
2023/02/01 11:41:26;;;;;;;;;;;;;;;7.63;70.22;101102.75;5027223;28;20029;-76
2023/02/01 11:44:19;;;;;;;37.10;18.80;;;;;;;7.70;70.38;101099.72;5025911;28;20360;-76
2023/02/01 11:46:44;;;;;;;29.02;16.73;;;;;;;7.54;71.74;101084.44;5026672;28;20171;-75
2023/02/01 11:49:27;;;;;;;38.10;24.30;;;;;;;7.54;71.85;101079.25;5025304;28;20191;-73
2023/02/01 11:51:55;;;;;;;34.55;20.33;;;;;;;7.59;73.18;101066.78;5026472;28;20057;-73
2023/02/01 11:54:42;;;;;;;33.80;21.10;;;;;;;7.49;73.37;101051.06;5027121;28;20032;-74
2023/02/01 11:57:26;;;;;;;36.42;20.42;;;;;;;7.46;74.35;101056.47;5021477;28;20495;-74
2023/02/01 12:00:10;;;;;;;32.35;18.55;;;;;;;7.45;74.60;101043.63;5027421;28;20017;-74